sensor_id;sensor_type;location;lat;lon;timestamp;P1;durP1;ratioP1;P2;durP2;ratioP2
11537;SDS011;50159;49.426;11.182;2023-11-21T00:01:25;1.70;;;1.67;;
11537;SDS011;50159;49.426;11.182;2023-11-21T00:03:52;2.70;;;1.90;;
11537;SDS011;50159;49.426;11.182;2023-11-21T00:06:21;1.90;;;1.80;;
11537;SDS011;50159;49.426;11.182;2023-11-21T00:08:48;4.27;;;1.83;;
11537;SDS011;50159;49.426;11.182;2023-11-21T00:11:15;3.47;;;2.10;;
11537;SDS011;50159;49.426;11.182;2023-11-21T00:13:41;1.60;;;1.60;;
11537;SDS011;50159;49.426;11.182;2023-11-21T00:16:08;1.80;;;1.70;;
11537;SDS011;50159;49.426;11.182;2023-11-21T00:18:35;2.13;;;1.90;;
11537;SDS011;50159;49.426;11.182;2023-11-21T00:21:02;2.33;;;2.13;;
11537;SDS011;50159;49.426;11.182;2023-11-21T00:23:29;4.67;;;2.17;;
11537;SDS011;50159;49.426;11.182;2023-11-21T00:25:56;1.70;;;1.70;;
11537;SDS011;50159;49.426;11.182;2023-11-21T00:28:24;2.43;;;2.10;;
11537;SDS011;50159;49.426;11.182;2023-11-21T00:30:52;1.83;;;1.83;;
11537;SDS011;50159;49.426;11.182;2023-11-21T00:33:20;2.00;;;1.90;;
11537;SDS011;50159;49.426;11.182;2023-11-21T00:35:46;2.30;;;1.90;;
11537;SDS011;50159;49.426;11.182;2023-11-21T00:38:13;3.40;;;1.97;;
11537;SDS011;50159;49.426;11.182;2023-11-21T00:40:40;1.50;;;1.50;;
11537;SDS011;50159;49.426;11.182;2023-11-21T00:43:07;1.93;;;1.70;;
11537;SDS011;50159;49.426;11.182;2023-11-21T00:45:34;1.80;;;1.70;;
11537;SDS011;50159;49.426;11.182;2023-11-21T00:48:02;1.50;;;1.50;;
11537;SDS011;50159;49.426;11.182;2023-11-21T00:50:31;2.23;;;2.13;;
11537;SDS011;50159;49.426;11.182;2023-11-21T00:52:58;1.83;;;1.73;;
11537;SDS011;50159;49.426;11.182;2023-11-21T00:55:24;3.07;;;2.00;;
11537;SDS011;50159;49.426;11.182;2023-11-21T00:57:52;3.23;;;1.73;;
11537;SDS011;50159;49.426;11.182;2023-11-21T01:00:19;3.67;;;2.10;;
11537;SDS011;50159;49.426;11.182;2023-11-21T01:02:46;1.93;;;1.90;;
11537;SDS011;50159;49.426;11.182;2023-11-21T01:05:14;2.10;;;2.00;;
11537;SDS011;50159;49.426;11.182;2023-11-21T01:07:40;3.93;;;2.37;;
11537;SDS011;50159;49.426;11.182;2023-11-21T01:10:07;2.17;;;2.00;;
11537;SDS011;50159;49.426;11.182;2023-11-21T01:12:36;3.23;;;2.00;;
11537;SDS011;50159;49.426;11.182;2023-11-21T01:15:05;2.40;;;1.90;;
11537;SDS011;50159;49.426;11.182;2023-11-21T01:17:33;3.90;;;2.03;;
11537;SDS011;50159;49.426;11.182;2023-11-21T01:20:02;1.90;;;1.80;;
11537;SDS011;50159;49.426;11.182;2023-11-21T01:22:32;2.70;;;1.93;;
11537;SDS011;50159;49.426;11.182;2023-11-21T01:24:59;2.67;;;2.47;;
11537;SDS011;50159;49.426;11.182;2023-11-21T01:27:26;2.10;;;2.00;;
11537;SDS011;50159;49.426;11.182;2023-11-21T01:29:53;1.80;;;1.80;;
11537;SDS011;50159;49.426;11.182;2023-11-21T01:32:20;2.43;;;2.33;;
11537;SDS011;50159;49.426;11.182;2023-11-21T01:34:47;2.00;;;1.90;;
11537;SDS011;50159;49.426;11.182;2023-11-21T01:37:16;3.70;;;2.17;;
11537;SDS011;50159;49.426;11.182;2023-11-21T01:39:43;2.23;;;2.03;;
11537;SDS011;50159;49.426;11.182;2023-11-21T01:42:10;3.13;;;2.17;;
11537;SDS011;50159;49.426;11.182;2023-11-21T01:44:39;1.77;;;1.77;;
11537;SDS011;50159;49.426;11.182;2023-11-21T01:47:06;3.13;;;2.13;;
11537;SDS011;50159;49.426;11.182;2023-11-21T01:49:35;3.43;;;1.73;;
11537;SDS011;50159;49.426;11.182;2023-11-21T01:52:03;2.00;;;1.90;;
11537;SDS011;50159;49.426;11.182;2023-11-21T01:54:30;2.23;;;2.13;;
11537;SDS011;50159;49.426;11.182;2023-11-21T01:57:00;2.23;;;2.10;;
11537;SDS011;50159;49.426;11.182;2023-11-21T01:59:34;2.37;;;1.90;;
11537;SDS011;50159;49.426;11.182;2023-11-21T02:02:04;2.10;;;2.00;;
11537;SDS011;50159;49.426;11.182;2023-11-21T02:04:33;1.87;;;1.80;;
11537;SDS011;50159;49.426;11.182;2023-11-21T02:07:00;2.10;;;2.00;;
11537;SDS011;50159;49.426;11.182;2023-11-21T02:09:27;1.70;;;1.60;;
11537;SDS011;50159;49.426;11.182;2023-11-21T02:11:57;3.63;;;1.90;;
11537;SDS011;50159;49.426;11.182;2023-11-21T02:14:25;1.80;;;1.77;;
11537;SDS011;50159;49.426;11.182;2023-11-21T02:16:54;3.80;;;1.77;;
11537;SDS011;50159;49.426;11.182;2023-11-21T02:19:23;1.73;;;1.63;;
11537;SDS011;50159;49.426;11.182;2023-11-21T02:21:52;1.83;;;1.80;;
11537;SDS011;50159;49.426;11.182;2023-11-21T02:24:20;1.73;;;1.73;;
11537;SDS011;50159;49.426;11.182;2023-11-21T02:26:48;1.63;;;1.63;;
11537;SDS011;50159;49.426;11.182;2023-11-21T02:29:18;2.20;;;1.80;;
11537;SDS011;50159;49.426;11.182;2023-11-21T02:31:49;1.90;;;1.80;;
11537;SDS011;50159;49.426;11.182;2023-11-21T02:34:18;2.37;;;2.17;;
11537;SDS011;50159;49.426;11.182;2023-11-21T02:36:45;1.90;;;1.80;;
11537;SDS011;50159;49.426;11.182;2023-11-21T02:39:12;2.80;;;1.77;;
11537;SDS011;50159;49.426;11.182;2023-11-21T02:41:39;1.87;;;1.77;;
11537;SDS011;50159;49.426;11.182;2023-11-21T02:44:06;2.20;;;2.10;;
11537;SDS011;50159;49.426;11.182;2023-11-21T02:46:33;1.70;;;1.60;;
11537;SDS011;50159;49.426;11.182;2023-11-21T02:49:01;1.87;;;1.77;;
11537;SDS011;50159;49.426;11.182;2023-11-21T02:51:30;1.57;;;1.47;;
11537;SDS011;50159;49.426;11.182;2023-11-21T02:53:56;2.60;;;2.00;;
11537;SDS011;50159;49.426;11.182;2023-11-21T02:56:25;1.47;;;1.47;;
11537;SDS011;50159;49.426;11.182;2023-11-21T02:58:55;2.20;;;2.00;;
11537;SDS011;50159;49.426;11.182;2023-11-21T03:01:22;3.07;;;2.10;;
11537;SDS011;50159;49.426;11.182;2023-11-21T03:03:53;2.07;;;1.90;;
11537;SDS011;50159;49.426;11.182;2023-11-21T03:06:21;3.93;;;1.87;;
11537;SDS011;50159;49.426;11.182;2023-11-21T03:08:48;2.37;;;1.90;;
11537;SDS011;50159;49.426;11.182;2023-11-21T03:11:15;1.77;;;1.67;;
11537;SDS011;50159;49.426;11.182;2023-11-21T03:13:42;2.47;;;1.80;;
11537;SDS011;50159;49.426;11.182;2023-11-21T03:16:09;2.00;;;1.90;;
11537;SDS011;50159;49.426;11.182;2023-11-21T03:18:40;1.50;;;1.50;;
11537;SDS011;50159;49.426;11.182;2023-11-21T03:21:07;1.77;;;1.70;;
11537;SDS011;50159;49.426;11.182;2023-11-21T03:23:35;1.50;;;1.50;;
11537;SDS011;50159;49.426;11.182;2023-11-21T03:26:03;1.53;;;1.47;;
11537;SDS011;50159;49.426;11.182;2023-11-21T03:28:30;1.73;;;1.70;;
11537;SDS011;50159;49.426;11.182;2023-11-21T03:30:57;1.80;;;1.70;;
11537;SDS011;50159;49.426;11.182;2023-11-21T03:33:24;1.57;;;1.57;;
11537;SDS011;50159;49.426;11.182;2023-11-21T03:35:51;1.50;;;1.50;;
11537;SDS011;50159;49.426;11.182;2023-11-21T03:38:19;1.40;;;1.40;;
11537;SDS011;50159;49.426;11.182;2023-11-21T03:40:46;1.77;;;1.77;;
11537;SDS011;50159;49.426;11.182;2023-11-21T03:43:13;1.70;;;1.60;;
11537;SDS011;50159;49.426;11.182;2023-11-21T03:45:40;1.70;;;1.70;;
11537;SDS011;50159;49.426;11.182;2023-11-21T03:48:07;1.87;;;1.77;;
11537;SDS011;50159;49.426;11.182;2023-11-21T03:50:35;1.87;;;1.77;;
11537;SDS011;50159;49.426;11.182;2023-11-21T03:53:01;2.00;;;1.90;;
11537;SDS011;50159;49.426;11.182;2023-11-21T03:55:29;1.90;;;1.80;;
11537;SDS011;50159;49.426;11.182;2023-11-21T03:57:58;2.07;;;1.90;;
11537;SDS011;50159;49.426;11.182;2023-11-21T04:00:25;2.83;;;2.03;;
11537;SDS011;50159;49.426;11.182;2023-11-21T04:02:53;2.93;;;1.77;;
11537;SDS011;50159;49.426;11.182;2023-11-21T04:05:20;2.70;;;2.20;;
11537;SDS011;50159;49.426;11.182;2023-11-21T04:07:51;2.10;;;2.00;;
11537;SDS011;50159;49.426;11.182;2023-11-21T04:10:18;1.80;;;1.80;;
11537;SDS011;50159;49.426;11.182;2023-11-21T04:12:47;2.27;;;1.80;;
11537;SDS011;50159;49.426;11.182;2023-11-21T04:15:14;1.83;;;1.83;;
11537;SDS011;50159;49.426;11.182;2023-11-21T04:17:41;2.97;;;1.87;;
11537;SDS011;50159;49.426;11.182;2023-11-21T04:20:09;1.77;;;1.67;;
11537;SDS011;50159;49.426;11.182;2023-11-21T04:22:37;1.93;;;1.87;;
11537;SDS011;50159;49.426;11.182;2023-11-21T04:25:10;2.67;;;2.10;;
11537;SDS011;50159;49.426;11.182;2023-11-21T04:27:39;3.13;;;2.00;;
11537;SDS011;50159;49.426;11.182;2023-11-21T04:30:10;2.07;;;1.97;;
11537;SDS011;50159;49.426;11.182;2023-11-21T04:32:38;2.30;;;1.90;;
11537;SDS011;50159;49.426;11.182;2023-11-21T04:35:05;1.80;;;1.70;;
11537;SDS011;50159;49.426;11.182;2023-11-21T04:37:34;2.10;;;2.00;;
11537;SDS011;50159;49.426;11.182;2023-11-21T04:40:02;2.57;;;2.00;;
11537;SDS011;50159;49.426;11.182;2023-11-21T04:42:33;2.03;;;1.93;;
11537;SDS011;50159;49.426;11.182;2023-11-21T04:45:02;3.40;;;2.23;;
11537;SDS011;50159;49.426;11.182;2023-11-21T04:47:35;4.10;;;2.20;;
11537;SDS011;50159;49.426;11.182;2023-11-21T04:50:02;2.80;;;2.00;;
11537;SDS011;50159;49.426;11.182;2023-11-21T04:52:30;2.30;;;2.10;;
11537;SDS011;50159;49.426;11.182;2023-11-21T04:54:58;3.07;;;1.73;;
11537;SDS011;50159;49.426;11.182;2023-11-21T04:57:27;2.17;;;2.00;;
11537;SDS011;50159;49.426;11.182;2023-11-21T04:59:54;6.47;;;2.20;;
11537;SDS011;50159;49.426;11.182;2023-11-21T05:02:21;2.63;;;2.20;;
11537;SDS011;50159;49.426;11.182;2023-11-21T05:05:01;2.20;;;2.10;;
11537;SDS011;50159;49.426;11.182;2023-11-21T05:07:30;2.03;;;1.97;;
11537;SDS011;50159;49.426;11.182;2023-11-21T05:09:58;2.50;;;2.40;;
11537;SDS011;50159;49.426;11.182;2023-11-21T05:12:25;2.30;;;2.00;;
11537;SDS011;50159;49.426;11.182;2023-11-21T05:14:52;2.17;;;2.17;;
11537;SDS011;50159;49.426;11.182;2023-11-21T05:17:19;2.67;;;2.47;;
11537;SDS011;50159;49.426;11.182;2023-11-21T05:19:46;2.17;;;2.13;;
11537;SDS011;50159;49.426;11.182;2023-11-21T05:22:15;3.93;;;2.20;;
11537;SDS011;50159;49.426;11.182;2023-11-21T05:24:42;2.27;;;2.03;;
11537;SDS011;50159;49.426;11.182;2023-11-21T05:27:09;2.10;;;2.00;;
11537;SDS011;50159;49.426;11.182;2023-11-21T05:29:36;2.60;;;2.40;;
11537;SDS011;50159;49.426;11.182;2023-11-21T05:32:04;2.17;;;2.07;;
11537;SDS011;50159;49.426;11.182;2023-11-21T05:34:31;2.10;;;2.10;;
11537;SDS011;50159;49.426;11.182;2023-11-21T05:36:58;1.83;;;1.83;;
11537;SDS011;50159;49.426;11.182;2023-11-21T05:39:25;1.83;;;1.83;;
11537;SDS011;50159;49.426;11.182;2023-11-21T05:41:52;3.27;;;2.10;;
11537;SDS011;50159;49.426;11.182;2023-11-21T05:44:18;2.03;;;2.00;;
11537;SDS011;50159;49.426;11.182;2023-11-21T05:46:45;1.93;;;1.93;;
11537;SDS011;50159;49.426;11.182;2023-11-21T05:49:12;2.00;;;1.90;;
11537;SDS011;50159;49.426;11.182;2023-11-21T05:51:39;2.10;;;2.00;;
11537;SDS011;50159;49.426;11.182;2023-11-21T05:54:06;2.97;;;2.40;;
11537;SDS011;50159;49.426;11.182;2023-11-21T05:56:34;2.17;;;2.07;;
11537;SDS011;50159;49.426;11.182;2023-11-21T05:59:00;3.67;;;2.53;;
11537;SDS011;50159;49.426;11.182;2023-11-21T06:01:29;6.17;;;2.50;;
11537;SDS011;50159;49.426;11.182;2023-11-21T06:03:56;2.37;;;2.27;;
11537;SDS011;50159;49.426;11.182;2023-11-21T06:06:23;2.27;;;2.17;;
11537;SDS011;50159;49.426;11.182;2023-11-21T06:08:50;2.40;;;2.30;;
11537;SDS011;50159;49.426;11.182;2023-11-21T06:11:18;1.80;;;1.80;;
11537;SDS011;50159;49.426;11.182;2023-11-21T06:13:45;2.60;;;2.37;;
11537;SDS011;50159;49.426;11.182;2023-11-21T06:16:11;1.93;;;1.93;;
11537;SDS011;50159;49.426;11.182;2023-11-21T06:18:42;2.30;;;2.00;;
11537;SDS011;50159;49.426;11.182;2023-11-21T06:21:10;2.50;;;2.37;;
11537;SDS011;50159;49.426;11.182;2023-11-21T06:23:37;2.40;;;2.20;;
11537;SDS011;50159;49.426;11.182;2023-11-21T06:26:04;2.10;;;2.10;;
11537;SDS011;50159;49.426;11.182;2023-11-21T06:28:32;2.00;;;1.90;;
11537;SDS011;50159;49.426;11.182;2023-11-21T06:30:59;2.83;;;2.20;;
11537;SDS011;50159;49.426;11.182;2023-11-21T06:33:31;2.60;;;2.50;;
11537;SDS011;50159;49.426;11.182;2023-11-21T06:35:58;2.70;;;2.60;;
11537;SDS011;50159;49.426;11.182;2023-11-21T06:38:26;2.27;;;2.17;;
11537;SDS011;50159;49.426;11.182;2023-11-21T06:40:56;2.40;;;2.20;;
11537;SDS011;50159;49.426;11.182;2023-11-21T06:43:24;2.60;;;2.50;;
11537;SDS011;50159;49.426;11.182;2023-11-21T06:45:51;2.90;;;2.70;;
11537;SDS011;50159;49.426;11.182;2023-11-21T06:48:18;2.00;;;2.00;;
11537;SDS011;50159;49.426;11.182;2023-11-21T06:50:45;5.03;;;2.93;;
11537;SDS011;50159;49.426;11.182;2023-11-21T06:53:12;3.37;;;3.07;;
11537;SDS011;50159;49.426;11.182;2023-11-21T06:55:39;2.83;;;2.63;;
11537;SDS011;50159;49.426;11.182;2023-11-21T06:58:06;3.37;;;2.87;;
11537;SDS011;50159;49.426;11.182;2023-11-21T07:00:33;2.57;;;2.37;;
11537;SDS011;50159;49.426;11.182;2023-11-21T07:03:00;2.20;;;2.10;;
11537;SDS011;50159;49.426;11.182;2023-11-21T07:05:27;2.50;;;2.40;;
11537;SDS011;50159;49.426;11.182;2023-11-21T07:07:54;2.77;;;2.57;;
11537;SDS011;50159;49.426;11.182;2023-11-21T07:10:20;2.93;;;2.73;;
11537;SDS011;50159;49.426;11.182;2023-11-21T07:12:47;2.83;;;2.70;;
11537;SDS011;50159;49.426;11.182;2023-11-21T07:15:14;2.60;;;2.50;;
11537;SDS011;50159;49.426;11.182;2023-11-21T07:17:41;3.10;;;3.00;;
11537;SDS011;50159;49.426;11.182;2023-11-21T07:20:09;2.60;;;2.40;;
11537;SDS011;50159;49.426;11.182;2023-11-21T07:22:38;2.30;;;2.30;;
11537;SDS011;50159;49.426;11.182;2023-11-21T07:25:04;2.37;;;2.20;;
11537;SDS011;50159;49.426;11.182;2023-11-21T07:27:33;2.73;;;2.53;;
11537;SDS011;50159;49.426;11.182;2023-11-21T07:30:02;4.60;;;2.70;;
11537;SDS011;50159;49.426;11.182;2023-11-21T07:32:31;2.30;;;2.30;;
11537;SDS011;50159;49.426;11.182;2023-11-21T07:34:58;4.27;;;3.87;;
11537;SDS011;50159;49.426;11.182;2023-11-21T07:37:27;3.73;;;3.53;;
11537;SDS011;50159;49.426;11.182;2023-11-21T07:39:55;2.77;;;2.67;;
11537;SDS011;50159;49.426;11.182;2023-11-21T07:42:25;2.73;;;2.53;;
11537;SDS011;50159;49.426;11.182;2023-11-21T07:44:52;3.40;;;3.13;;
11537;SDS011;50159;49.426;11.182;2023-11-21T07:47:19;2.57;;;2.43;;
11537;SDS011;50159;49.426;11.182;2023-11-21T07:49:46;3.93;;;2.40;;
11537;SDS011;50159;49.426;11.182;2023-11-21T07:52:13;2.80;;;2.70;;
11537;SDS011;50159;49.426;11.182;2023-11-21T07:54:42;17.53;;;4.53;;
11537;SDS011;50159;49.426;11.182;2023-11-21T07:57:09;3.70;;;2.97;;
11537;SDS011;50159;49.426;11.182;2023-11-21T07:59:40;3.20;;;2.90;;
11537;SDS011;50159;49.426;11.182;2023-11-21T08:02:07;2.80;;;2.70;;
11537;SDS011;50159;49.426;11.182;2023-11-21T08:04:34;3.73;;;3.13;;
11537;SDS011;50159;49.426;11.182;2023-11-21T08:07:01;4.30;;;3.17;;
11537;SDS011;50159;49.426;11.182;2023-11-21T08:09:29;11.97;;;3.60;;
11537;SDS011;50159;49.426;11.182;2023-11-21T08:11:56;5.67;;;3.20;;
11537;SDS011;50159;49.426;11.182;2023-11-21T08:14:23;2.90;;;2.80;;
11537;SDS011;50159;49.426;11.182;2023-11-21T08:16:53;2.67;;;2.47;;
11537;SDS011;50159;49.426;11.182;2023-11-21T08:19:23;3.50;;;2.70;;
11537;SDS011;50159;49.426;11.182;2023-11-21T08:21:51;3.30;;;3.10;;
11537;SDS011;50159;49.426;11.182;2023-11-21T08:24:21;3.13;;;2.93;;
11537;SDS011;50159;49.426;11.182;2023-11-21T08:26:48;3.60;;;3.40;;
11537;SDS011;50159;49.426;11.182;2023-11-21T08:29:15;2.80;;;2.70;;
11537;SDS011;50159;49.426;11.182;2023-11-21T08:31:42;3.17;;;2.90;;
11537;SDS011;50159;49.426;11.182;2023-11-21T08:34:12;3.17;;;2.97;;
11537;SDS011;50159;49.426;11.182;2023-11-21T08:36:41;3.03;;;2.90;;
11537;SDS011;50159;49.426;11.182;2023-11-21T08:39:11;3.10;;;2.90;;
11537;SDS011;50159;49.426;11.182;2023-11-21T08:41:39;2.90;;;2.70;;
11537;SDS011;50159;49.426;11.182;2023-11-21T08:44:06;2.70;;;2.60;;
11537;SDS011;50159;49.426;11.182;2023-11-21T08:46:33;2.67;;;2.57;;
11537;SDS011;50159;49.426;11.182;2023-11-21T08:49:03;2.80;;;2.63;;
11537;SDS011;50159;49.426;11.182;2023-11-21T08:51:30;2.90;;;2.80;;
11537;SDS011;50159;49.426;11.182;2023-11-21T08:53:57;2.80;;;2.70;;
11537;SDS011;50159;49.426;11.182;2023-11-21T08:56:27;4.27;;;3.47;;
11537;SDS011;50159;49.426;11.182;2023-11-21T08:58:53;3.30;;;3.10;;
11537;SDS011;50159;49.426;11.182;2023-11-21T09:01:20;4.20;;;3.80;;
11537;SDS011;50159;49.426;11.182;2023-11-21T09:03:47;3.40;;;3.20;;
11537;SDS011;50159;49.426;11.182;2023-11-21T09:06:16;2.90;;;2.80;;
11537;SDS011;50159;49.426;11.182;2023-11-21T09:08:43;4.23;;;3.93;;
11537;SDS011;50159;49.426;11.182;2023-11-21T09:11:10;4.70;;;3.47;;
11537;SDS011;50159;49.426;11.182;2023-11-21T09:13:36;3.67;;;3.37;;
11537;SDS011;50159;49.426;11.182;2023-11-21T09:16:03;4.63;;;4.27;;
11537;SDS011;50159;49.426;11.182;2023-11-21T09:18:31;4.20;;;3.73;;
11537;SDS011;50159;49.426;11.182;2023-11-21T09:20:58;4.70;;;4.30;;
11537;SDS011;50159;49.426;11.182;2023-11-21T09:23:25;3.70;;;3.40;;
11537;SDS011;50159;49.426;11.182;2023-11-21T09:25:52;3.87;;;3.57;;
11537;SDS011;50159;49.426;11.182;2023-11-21T09:28:23;3.80;;;3.53;;
11537;SDS011;50159;49.426;11.182;2023-11-21T09:30:49;4.10;;;3.80;;
11537;SDS011;50159;49.426;11.182;2023-11-21T09:33:17;4.00;;;3.80;;
11537;SDS011;50159;49.426;11.182;2023-11-21T09:35:43;3.97;;;3.67;;
11537;SDS011;50159;49.426;11.182;2023-11-21T09:38:10;4.57;;;4.17;;
11537;SDS011;50159;49.426;11.182;2023-11-21T09:40:38;7.67;;;6.40;;
11537;SDS011;50159;49.426;11.182;2023-11-21T09:43:06;6.20;;;5.70;;
11537;SDS011;50159;49.426;11.182;2023-11-21T09:45:46;4.70;;;4.30;;
11537;SDS011;50159;49.426;11.182;2023-11-21T09:48:14;4.90;;;4.50;;
11537;SDS011;50159;49.426;11.182;2023-11-21T09:50:43;4.27;;;3.97;;
11537;SDS011;50159;49.426;11.182;2023-11-21T09:55:53;4.20;;;3.90;;
11537;SDS011;50159;49.426;11.182;2023-11-21T09:58:21;4.03;;;3.83;;
11537;SDS011;50159;49.426;11.182;2023-11-21T10:00:52;4.20;;;3.97;;
11537;SDS011;50159;49.426;11.182;2023-11-21T10:03:22;5.13;;;3.97;;
11537;SDS011;50159;49.426;11.182;2023-11-21T10:05:50;4.10;;;3.80;;
11537;SDS011;50159;49.426;11.182;2023-11-21T10:08:20;3.93;;;3.60;;
11537;SDS011;50159;49.426;11.182;2023-11-21T10:10:51;3.80;;;3.60;;
11537;SDS011;50159;49.426;11.182;2023-11-21T10:13:20;4.23;;;3.47;;
11537;SDS011;50159;49.426;11.182;2023-11-21T10:15:51;3.70;;;3.50;;
11537;SDS011;50159;49.426;11.182;2023-11-21T10:18:19;3.40;;;3.20;;
11537;SDS011;50159;49.426;11.182;2023-11-21T10:20:48;3.53;;;2.80;;
11537;SDS011;50159;49.426;11.182;2023-11-21T10:23:20;2.83;;;2.73;;
11537;SDS011;50159;49.426;11.182;2023-11-21T10:25:50;2.50;;;2.40;;
11537;SDS011;50159;49.426;11.182;2023-11-21T10:28:18;2.40;;;2.30;;
11537;SDS011;50159;49.426;11.182;2023-11-21T10:30:47;2.50;;;2.40;;
11537;SDS011;50159;49.426;11.182;2023-11-21T10:33:14;2.30;;;2.30;;
11537;SDS011;50159;49.426;11.182;2023-11-21T10:38:07;2.60;;;2.50;;
11537;SDS011;50159;49.426;11.182;2023-11-21T10:40:42;2.43;;;2.33;;
11537;SDS011;50159;49.426;11.182;2023-11-21T10:43:11;2.83;;;2.63;;
11537;SDS011;50159;49.426;11.182;2023-11-21T10:45:39;2.63;;;2.53;;
11537;SDS011;50159;49.426;11.182;2023-11-21T10:48:07;2.77;;;2.67;;
11537;SDS011;50159;49.426;11.182;2023-11-21T10:50:37;3.17;;;2.60;;
11537;SDS011;50159;49.426;11.182;2023-11-21T10:53:04;4.80;;;3.30;;
11537;SDS011;50159;49.426;11.182;2023-11-21T10:55:35;3.40;;;3.10;;
11537;SDS011;50159;49.426;11.182;2023-11-21T10:58:02;3.10;;;2.90;;
11537;SDS011;50159;49.426;11.182;2023-11-21T11:00:33;2.70;;;2.60;;
11537;SDS011;50159;49.426;11.182;2023-11-21T11:03:06;2.40;;;2.30;;
11537;SDS011;50159;49.426;11.182;2023-11-21T11:05:40;2.53;;;2.43;;
11537;SDS011;50159;49.426;11.182;2023-11-21T11:08:18;2.53;;;2.33;;
11537;SDS011;50159;49.426;11.182;2023-11-21T11:10:54;2.97;;;2.77;;
11537;SDS011;50159;49.426;11.182;2023-11-21T11:13:22;2.93;;;2.70;;
11537;SDS011;50159;49.426;11.182;2023-11-21T11:15:50;3.27;;;2.80;;
11537;SDS011;50159;49.426;11.182;2023-11-21T11:18:26;2.30;;;2.27;;
11537;SDS011;50159;49.426;11.182;2023-11-21T11:20:52;2.23;;;2.13;;
11537;SDS011;50159;49.426;11.182;2023-11-21T11:23:29;2.00;;;2.00;;
11537;SDS011;50159;49.426;11.182;2023-11-21T11:29:14;2.03;;;2.03;;
11537;SDS011;50159;49.426;11.182;2023-11-21T11:32:07;1.97;;;1.93;;
11537;SDS011;50159;49.426;11.182;2023-11-21T11:34:56;2.30;;;2.20;;
11537;SDS011;50159;49.426;11.182;2023-11-21T11:37:41;2.10;;;2.00;;
11537;SDS011;50159;49.426;11.182;2023-11-21T11:40:08;2.33;;;2.23;;
11537;SDS011;50159;49.426;11.182;2023-11-21T11:42:38;2.00;;;1.90;;
11537;SDS011;50159;49.426;11.182;2023-11-21T11:45:23;1.67;;;1.63;;
11537;SDS011;50159;49.426;11.182;2023-11-21T11:47:59;2.47;;;2.37;;
11537;SDS011;50159;49.426;11.182;2023-11-21T11:50:27;2.50;;;2.40;;
11537;SDS011;50159;49.426;11.182;2023-11-21T11:52:55;2.10;;;2.00;;
11537;SDS011;50159;49.426;11.182;2023-11-21T11:55:42;1.97;;;1.97;;
11537;SDS011;50159;49.426;11.182;2023-11-21T11:58:10;2.27;;;2.10;;
11537;SDS011;50159;49.426;11.182;2023-11-21T12:00:37;1.90;;;1.90;;
11537;SDS011;50159;49.426;11.182;2023-11-21T12:03:07;1.80;;;1.80;;
11537;SDS011;50159;49.426;11.182;2023-11-21T12:05:35;2.03;;;2.03;;
11537;SDS011;50159;49.426;11.182;2023-11-21T12:08:06;2.40;;;2.30;;
11537;SDS011;50159;49.426;11.182;2023-11-21T12:10:34;1.97;;;1.97;;
11537;SDS011;50159;49.426;11.182;2023-11-21T12:13:07;2.33;;;2.23;;
11537;SDS011;50159;49.426;11.182;2023-11-21T12:15:39;1.90;;;1.90;;
11537;SDS011;50159;49.426;11.182;2023-11-21T12:18:08;2.10;;;2.00;;
11537;SDS011;50159;49.426;11.182;2023-11-21T12:20:35;2.10;;;2.10;;
11537;SDS011;50159;49.426;11.182;2023-11-21T12:23:05;2.10;;;2.10;;
11537;SDS011;50159;49.426;11.182;2023-11-21T12:25:32;2.70;;;2.50;;
11537;SDS011;50159;49.426;11.182;2023-11-21T12:28:00;2.90;;;2.70;;
11537;SDS011;50159;49.426;11.182;2023-11-21T12:30:29;2.30;;;2.10;;
11537;SDS011;50159;49.426;11.182;2023-11-21T12:32:58;2.07;;;1.97;;
11537;SDS011;50159;49.426;11.182;2023-11-21T12:35:28;2.00;;;2.00;;
11537;SDS011;50159;49.426;11.182;2023-11-21T12:37:57;2.30;;;2.20;;
11537;SDS011;50159;49.426;11.182;2023-11-21T12:40:25;1.80;;;1.80;;
11537;SDS011;50159;49.426;11.182;2023-11-21T12:42:53;2.03;;;2.00;;
11537;SDS011;50159;49.426;11.182;2023-11-21T12:45:23;1.87;;;1.77;;
11537;SDS011;50159;49.426;11.182;2023-11-21T12:48:00;1.97;;;1.87;;
11537;SDS011;50159;49.426;11.182;2023-11-21T12:50:34;1.97;;;1.97;;
11537;SDS011;50159;49.426;11.182;2023-11-21T12:53:05;2.70;;;2.50;;
11537;SDS011;50159;49.426;11.182;2023-11-21T12:55:38;5.20;;;3.13;;
11537;SDS011;50159;49.426;11.182;2023-11-21T12:58:07;6.77;;;4.20;;
11537;SDS011;50159;49.426;11.182;2023-11-21T13:00:47;5.17;;;3.47;;
11537;SDS011;50159;49.426;11.182;2023-11-21T13:03:15;3.93;;;3.63;;
11537;SDS011;50159;49.426;11.182;2023-11-21T13:05:46;4.40;;;2.93;;
11537;SDS011;50159;49.426;11.182;2023-11-21T13:08:19;2.70;;;2.60;;
11537;SDS011;50159;49.426;11.182;2023-11-21T13:10:50;2.33;;;2.23;;
11537;SDS011;50159;49.426;11.182;2023-11-21T13:13:22;2.50;;;2.40;;
11537;SDS011;50159;49.426;11.182;2023-11-21T13:15:52;2.17;;;2.10;;
11537;SDS011;50159;49.426;11.182;2023-11-21T13:18:24;2.40;;;2.30;;
11537;SDS011;50159;49.426;11.182;2023-11-21T13:20:55;2.33;;;2.23;;
11537;SDS011;50159;49.426;11.182;2023-11-21T13:23:24;2.10;;;2.00;;
11537;SDS011;50159;49.426;11.182;2023-11-21T13:25:53;2.53;;;2.43;;
11537;SDS011;50159;49.426;11.182;2023-11-21T13:28:31;2.10;;;2.10;;
11537;SDS011;50159;49.426;11.182;2023-11-21T13:31:04;2.07;;;1.97;;
11537;SDS011;50159;49.426;11.182;2023-11-21T13:33:37;2.53;;;2.33;;
11537;SDS011;50159;49.426;11.182;2023-11-21T13:36:06;2.30;;;2.10;;
11537;SDS011;50159;49.426;11.182;2023-11-21T13:38:36;2.40;;;2.20;;
11537;SDS011;50159;49.426;11.182;2023-11-21T13:41:08;2.83;;;2.63;;
11537;SDS011;50159;49.426;11.182;2023-11-21T13:43:36;2.30;;;2.20;;
11537;SDS011;50159;49.426;11.182;2023-11-21T13:46:03;1.83;;;1.73;;
11537;SDS011;50159;49.426;11.182;2023-11-21T13:48:39;2.27;;;2.17;;
11537;SDS011;50159;49.426;11.182;2023-11-21T13:51:08;1.83;;;1.73;;
11537;SDS011;50159;49.426;11.182;2023-11-21T13:53:44;1.60;;;1.50;;
11537;SDS011;50159;49.426;11.182;2023-11-21T13:56:14;1.37;;;1.37;;
11537;SDS011;50159;49.426;11.182;2023-11-21T13:58:50;1.20;;;1.20;;
11537;SDS011;50159;49.426;11.182;2023-11-21T14:01:18;2.30;;;1.20;;
11537;SDS011;50159;49.426;11.182;2023-11-21T14:04:00;1.03;;;1.03;;
11537;SDS011;50159;49.426;11.182;2023-11-21T14:06:42;1.13;;;1.13;;
11537;SDS011;50159;49.426;11.182;2023-11-21T14:09:19;0.93;;;0.93;;
11537;SDS011;50159;49.426;11.182;2023-11-21T14:11:55;1.30;;;1.30;;
11537;SDS011;50159;49.426;11.182;2023-11-21T14:14:24;0.93;;;0.93;;
11537;SDS011;50159;49.426;11.182;2023-11-21T14:16:53;1.07;;;1.07;;
11537;SDS011;50159;49.426;11.182;2023-11-21T14:19:22;1.00;;;1.00;;
11537;SDS011;50159;49.426;11.182;2023-11-21T14:21:53;1.03;;;1.03;;
11537;SDS011;50159;49.426;11.182;2023-11-21T14:24:20;1.13;;;1.13;;
11537;SDS011;50159;49.426;11.182;2023-11-21T14:26:49;1.27;;;1.17;;
11537;SDS011;50159;49.426;11.182;2023-11-21T14:29:17;1.33;;;1.30;;
11537;SDS011;50159;49.426;11.182;2023-11-21T14:31:49;1.20;;;1.20;;
11537;SDS011;50159;49.426;11.182;2023-11-21T14:34:17;1.50;;;1.40;;
11537;SDS011;50159;49.426;11.182;2023-11-21T14:36:48;1.10;;;1.10;;
11537;SDS011;50159;49.426;11.182;2023-11-21T14:39:16;1.50;;;1.40;;
11537;SDS011;50159;49.426;11.182;2023-11-21T14:41:55;1.50;;;1.50;;
11537;SDS011;50159;49.426;11.182;2023-11-21T14:44:24;1.80;;;1.70;;
11537;SDS011;50159;49.426;11.182;2023-11-21T14:46:54;1.50;;;1.50;;
11537;SDS011;50159;49.426;11.182;2023-11-21T14:49:24;1.50;;;1.50;;
11537;SDS011;50159;49.426;11.182;2023-11-21T14:51:55;1.63;;;1.57;;